sensor_id;sensor_type;location;lat;lon;timestamp;temperature;humidity
48264;DHT22;34086;51.076;13.722;2022-10-17T00:00:23;14.00;99.90
48264;DHT22;34086;51.076;13.722;2022-10-17T00:01:24;13.90;99.90
48264;DHT22;34086;51.076;13.722;2022-10-17T00:02:25;13.90;99.90
48264;DHT22;34086;51.076;13.722;2022-10-17T00:03:25;13.90;99.90
48264;DHT22;34086;51.076;13.722;2022-10-17T00:04:26;13.90;99.90
48264;DHT22;34086;51.076;13.722;2022-10-17T00:05:27;13.90;99.90
48264;DHT22;34086;51.076;13.722;2022-10-17T00:06:27;13.90;99.90
48264;DHT22;34086;51.076;13.722;2022-10-17T00:07:29;13.90;99.90
48264;DHT22;34086;51.076;13.722;2022-10-17T00:08:30;13.90;99.90
48264;DHT22;34086;51.076;13.722;2022-10-17T00:09:31;13.90;99.90
48264;DHT22;34086;51.076;13.722;2022-10-17T00:10:31;13.90;99.90
48264;DHT22;34086;51.076;13.722;2022-10-17T00:11:32;13.80;99.90
48264;DHT22;34086;51.076;13.722;2022-10-17T00:12:33;13.80;99.90
48264;DHT22;34086;51.076;13.722;2022-10-17T00:13:34;13.80;99.90
48264;DHT22;34086;51.076;13.722;2022-10-17T00:14:36;13.80;99.90
48264;DHT22;34086;51.076;13.722;2022-10-17T00:15:37;13.80;99.90
48264;DHT22;34086;51.076;13.722;2022-10-17T00:16:38;13.70;99.90
48264;DHT22;34086;51.076;13.722;2022-10-17T00:17:39;13.70;99.90
48264;DHT22;34086;51.076;13.722;2022-10-17T00:18:39;13.70;99.90
48264;DHT22;34086;51.076;13.722;2022-10-17T00:19:40;13.70;99.90
48264;DHT22;34086;51.076;13.722;2022-10-17T00:20:41;13.70;99.90
48264;DHT22;34086;51.076;13.722;2022-10-17T00:21:41;13.70;99.90
48264;DHT22;34086;51.076;13.722;2022-10-17T00:22:43;13.70;99.90
48264;DHT22;34086;51.076;13.722;2022-10-17T00:23:44;13.60;99.90
48264;DHT22;34086;51.076;13.722;2022-10-17T00:24:45;13.70;99.90
48264;DHT22;34086;51.076;13.722;2022-10-17T00:25:46;13.60;99.90
48264;DHT22;34086;51.076;13.722;2022-10-17T00:26:47;13.70;99.90
48264;DHT22;34086;51.076;13.722;2022-10-17T00:27:47;13.60;99.90
48264;DHT22;34086;51.076;13.722;2022-10-17T00:28:50;13.60;99.90
48264;DHT22;34086;51.076;13.722;2022-10-17T00:29:51;13.60;99.90
48264;DHT22;34086;51.076;13.722;2022-10-17T00:31:00;13.50;99.90
48264;DHT22;34086;51.076;13.722;2022-10-17T00:32:01;13.50;99.90
48264;DHT22;34086;51.076;13.722;2022-10-17T00:33:01;13.50;99.90
48264;DHT22;34086;51.076;13.722;2022-10-17T00:34:02;13.50;99.90
48264;DHT22;34086;51.076;13.722;2022-10-17T00:35:03;13.50;99.90
48264;DHT22;34086;51.076;13.722;2022-10-17T00:37:09;13.50;99.90
48264;DHT22;34086;51.076;13.722;2022-10-17T00:38:10;13.50;99.90
48264;DHT22;34086;51.076;13.722;2022-10-17T00:39:11;13.50;99.90
48264;DHT22;34086;51.076;13.722;2022-10-17T00:40:12;13.50;99.90
48264;DHT22;34086;51.076;13.722;2022-10-17T00:41:17;13.40;99.90
48264;DHT22;34086;51.076;13.722;2022-10-17T00:42:18;13.40;99.90
48264;DHT22;34086;51.076;13.722;2022-10-17T00:43:19;13.40;99.90
48264;DHT22;34086;51.076;13.722;2022-10-17T00:45:30;13.50;99.90
48264;DHT22;34086;51.076;13.722;2022-10-17T00:46:37;13.40;99.90
48264;DHT22;34086;51.076;13.722;2022-10-17T00:47:38;13.40;99.90
48264;DHT22;34086;51.076;13.722;2022-10-17T00:48:40;13.40;99.90
48264;DHT22;34086;51.076;13.722;2022-10-17T00:49:40;13.40;99.90
48264;DHT22;34086;51.076;13.722;2022-10-17T00:50:43;13.40;99.90
48264;DHT22;34086;51.076;13.722;2022-10-17T00:52:07;13.40;99.90
48264;DHT22;34086;51.076;13.722;2022-10-17T00:53:09;13.40;99.90
48264;DHT22;34086;51.076;13.722;2022-10-17T00:54:13;13.30;99.90
48264;DHT22;34086;51.076;13.722;2022-10-17T00:55:19;13.40;99.90
48264;DHT22;34086;51.076;13.722;2022-10-17T00:56:20;13.30;99.90
48264;DHT22;34086;51.076;13.722;2022-10-17T00:57:21;13.40;99.90
48264;DHT22;34086;51.076;13.722;2022-10-17T00:58:23;13.30;99.90
48264;DHT22;34086;51.076;13.722;2022-10-17T00:59:25;13.30;99.90
48264;DHT22;34086;51.076;13.722;2022-10-17T01:00:26;13.30;99.90
48264;DHT22;34086;51.076;13.722;2022-10-17T01:01:26;13.30;99.90
48264;DHT22;34086;51.076;13.722;2022-10-17T01:02:27;13.30;99.90
48264;DHT22;34086;51.076;13.722;2022-10-17T01:03:28;13.30;99.90
48264;DHT22;34086;51.076;13.722;2022-10-17T01:04:29;13.20;99.90
48264;DHT22;34086;51.076;13.722;2022-10-17T01:05:29;13.30;99.90
48264;DHT22;34086;51.076;13.722;2022-10-17T01:06:30;13.20;99.90
48264;DHT22;34086;51.076;13.722;2022-10-17T01:07:31;13.20;99.90
48264;DHT22;34086;51.076;13.722;2022-10-17T01:08:32;13.20;99.90
48264;DHT22;34086;51.076;13.722;2022-10-17T01:09:33;13.20;99.90
48264;DHT22;34086;51.076;13.722;2022-10-17T01:10:53;13.20;99.90
48264;DHT22;34086;51.076;13.722;2022-10-17T01:13:01;13.20;99.90
48264;DHT22;34086;51.076;13.722;2022-10-17T01:14:33;13.20;99.90
48264;DHT22;34086;51.076;13.722;2022-10-17T01:15:57;13.10;99.90
48264;DHT22;34086;51.076;13.722;2022-10-17T01:18:41;13.10;99.90
48264;DHT22;34086;51.076;13.722;2022-10-17T01:20:18;13.10;99.90
48264;DHT22;34086;51.076;13.722;2022-10-17T01:23:00;13.10;99.90
48264;DHT22;34086;51.076;13.722;2022-10-17T01:25:40;13.00;99.90
48264;DHT22;34086;51.076;13.722;2022-10-17T01:30:40;13.00;99.90
48264;DHT22;34086;51.076;13.722;2022-10-17T01:31:54;13.00;99.90
48264;DHT22;34086;51.076;13.722;2022-10-17T01:33:06;13.00;99.90
48264;DHT22;34086;51.076;13.722;2022-10-17T01:34:18;13.00;99.90
48264;DHT22;34086;51.076;13.722;2022-10-17T01:35:45;13.00;99.90
48264;DHT22;34086;51.076;13.722;2022-10-17T01:36:55;12.90;99.90
48264;DHT22;34086;51.076;13.722;2022-10-17T01:38:03;12.90;99.90
48264;DHT22;34086;51.076;13.722;2022-10-17T01:40:59;12.90;99.90
48264;DHT22;34086;51.076;13.722;2022-10-17T01:42:14;12.90;99.90
48264;DHT22;34086;51.076;13.722;2022-10-17T01:45:07;12.90;99.90
48264;DHT22;34086;51.076;13.722;2022-10-17T01:46:15;12.90;99.90
48264;DHT22;34086;51.076;13.722;2022-10-17T01:47:19;12.90;99.90
48264;DHT22;34086;51.076;13.722;2022-10-17T01:48:23;12.90;99.90
48264;DHT22;34086;51.076;13.722;2022-10-17T01:49:27;12.90;99.90
48264;DHT22;34086;51.076;13.722;2022-10-17T01:50:35;12.90;99.90
48264;DHT22;34086;51.076;13.722;2022-10-17T01:51:44;12.80;99.90
48264;DHT22;34086;51.076;13.722;2022-10-17T01:52:50;12.80;99.90
48264;DHT22;34086;51.076;13.722;2022-10-17T01:53:58;12.80;99.90
48264;DHT22;34086;51.076;13.722;2022-10-17T01:55:07;12.80;99.90
48264;DHT22;34086;51.076;13.722;2022-10-17T01:56:09;12.80;99.90
48264;DHT22;34086;51.076;13.722;2022-10-17T01:57:20;12.80;99.90
48264;DHT22;34086;51.076;13.722;2022-10-17T01:58:28;12.80;99.90
48264;DHT22;34086;51.076;13.722;2022-10-17T01:59:35;12.80;99.90
48264;DHT22;34086;51.076;13.722;2022-10-17T02:00:40;12.70;99.90
48264;DHT22;34086;51.076;13.722;2022-10-17T02:01:43;12.70;99.90
48264;DHT22;34086;51.076;13.722;2022-10-17T02:02:46;12.70;99.90
48264;DHT22;34086;51.076;13.722;2022-10-17T02:03:50;12.70;99.90
48264;DHT22;34086;51.076;13.722;2022-10-17T02:04:54;12.70;99.90
48264;DHT22;34086;51.076;13.722;2022-10-17T02:06:02;12.70;99.90
48264;DHT22;34086;51.076;13.722;2022-10-17T02:07:11;12.70;99.90
48264;DHT22;34086;51.076;13.722;2022-10-17T02:08:13;12.70;99.90
48264;DHT22;34086;51.076;13.722;2022-10-17T02:09:25;12.70;99.90
48264;DHT22;34086;51.076;13.722;2022-10-17T02:10:37;12.70;99.90
48264;DHT22;34086;51.076;13.722;2022-10-17T02:11:44;12.70;99.90
48264;DHT22;34086;51.076;13.722;2022-10-17T02:17:44;12.80;99.90
48264;DHT22;34086;51.076;13.722;2022-10-17T02:21:50;12.90;99.90
48264;DHT22;34086;51.076;13.722;2022-10-17T02:26:45;12.90;99.90
48264;DHT22;34086;51.076;13.722;2022-10-17T02:29:14;12.90;99.90
48264;DHT22;34086;51.076;13.722;2022-10-17T02:30:45;12.90;99.90
48264;DHT22;34086;51.076;13.722;2022-10-17T02:33:15;12.90;99.90
48264;DHT22;34086;51.076;13.722;2022-10-17T02:34:28;12.90;99.90
48264;DHT22;34086;51.076;13.722;2022-10-17T02:35:35;12.90;99.90
48264;DHT22;34086;51.076;13.722;2022-10-17T02:36:40;13.00;99.90
48264;DHT22;34086;51.076;13.722;2022-10-17T02:37:44;13.00;99.90
48264;DHT22;34086;51.076;13.722;2022-10-17T02:38:48;13.00;99.90
48264;DHT22;34086;51.076;13.722;2022-10-17T02:39:51;13.00;99.90
48264;DHT22;34086;51.076;13.722;2022-10-17T02:40:54;13.00;99.90
48264;DHT22;34086;51.076;13.722;2022-10-17T02:41:57;13.10;99.90
48264;DHT22;34086;51.076;13.722;2022-10-17T02:42:59;13.10;99.90
48264;DHT22;34086;51.076;13.722;2022-10-17T02:44:04;13.10;99.90
48264;DHT22;34086;51.076;13.722;2022-10-17T02:45:06;13.10;99.90
48264;DHT22;34086;51.076;13.722;2022-10-17T02:46:13;13.20;99.90
48264;DHT22;34086;51.076;13.722;2022-10-17T02:47:25;13.20;99.90
48264;DHT22;34086;51.076;13.722;2022-10-17T02:48:39;13.20;99.90
48264;DHT22;34086;51.076;13.722;2022-10-17T02:49:43;13.20;99.90
48264;DHT22;34086;51.076;13.722;2022-10-17T02:51:01;13.20;99.90
48264;DHT22;34086;51.076;13.722;2022-10-17T02:52:18;13.20;99.90
48264;DHT22;34086;51.076;13.722;2022-10-17T02:53:36;13.20;99.90
48264;DHT22;34086;51.076;13.722;2022-10-17T02:55:49;13.20;99.90
48264;DHT22;34086;51.076;13.722;2022-10-17T02:57:00;13.20;99.90
48264;DHT22;34086;51.076;13.722;2022-10-17T02:58:13;13.20;99.90
48264;DHT22;34086;51.076;13.722;2022-10-17T02:59:20;13.20;99.90
48264;DHT22;34086;51.076;13.722;2022-10-17T03:00:22;13.20;99.90
48264;DHT22;34086;51.076;13.722;2022-10-17T03:01:24;13.30;99.90
48264;DHT22;34086;51.076;13.722;2022-10-17T03:02:26;13.30;99.90
48264;DHT22;34086;51.076;13.722;2022-10-17T03:03:31;13.30;99.90
48264;DHT22;34086;51.076;13.722;2022-10-17T03:04:35;13.30;99.90
48264;DHT22;34086;51.076;13.722;2022-10-17T03:05:36;13.30;99.90
48264;DHT22;34086;51.076;13.722;2022-10-17T03:06:40;13.30;99.90
48264;DHT22;34086;51.076;13.722;2022-10-17T03:07:41;13.30;99.90
48264;DHT22;34086;51.076;13.722;2022-10-17T03:08:42;13.30;99.90
48264;DHT22;34086;51.076;13.722;2022-10-17T03:09:43;13.30;99.90
48264;DHT22;34086;51.076;13.722;2022-10-17T03:10:43;13.30;99.90
48264;DHT22;34086;51.076;13.722;2022-10-17T03:11:44;13.30;99.90
48264;DHT22;34086;51.076;13.722;2022-10-17T03:12:45;13.30;99.90
48264;DHT22;34086;51.076;13.722;2022-10-17T03:13:46;13.40;99.90
48264;DHT22;34086;51.076;13.722;2022-10-17T03:14:47;13.40;99.90
48264;DHT22;34086;51.076;13.722;2022-10-17T03:15:47;13.40;99.90
48264;DHT22;34086;51.076;13.722;2022-10-17T03:16:48;13.40;99.90
48264;DHT22;34086;51.076;13.722;2022-10-17T03:17:51;13.40;99.90
48264;DHT22;34086;51.076;13.722;2022-10-17T03:18:52;13.50;99.90
48264;DHT22;34086;51.076;13.722;2022-10-17T03:19:53;13.40;99.90
48264;DHT22;34086;51.076;13.722;2022-10-17T03:20:54;13.50;99.90
48264;DHT22;34086;51.076;13.722;2022-10-17T03:21:54;13.50;99.90
48264;DHT22;34086;51.076;13.722;2022-10-17T03:22:56;13.50;99.90
48264;DHT22;34086;51.076;13.722;2022-10-17T03:23:56;13.50;99.90
48264;DHT22;34086;51.076;13.722;2022-10-17T03:24:58;13.50;99.90
48264;DHT22;34086;51.076;13.722;2022-10-17T03:26:03;13.50;99.90
48264;DHT22;34086;51.076;13.722;2022-10-17T03:27:04;13.50;99.90
48264;DHT22;34086;51.076;13.722;2022-10-17T03:28:04;13.50;99.90
48264;DHT22;34086;51.076;13.722;2022-10-17T03:29:05;13.50;99.90
48264;DHT22;34086;51.076;13.722;2022-10-17T03:30:08;13.50;99.90
48264;DHT22;34086;51.076;13.722;2022-10-17T03:31:13;13.50;99.90
48264;DHT22;34086;51.076;13.722;2022-10-17T03:32:14;13.40;99.90
48264;DHT22;34086;51.076;13.722;2022-10-17T03:33:15;13.40;99.90
48264;DHT22;34086;51.076;13.722;2022-10-17T03:34:16;13.40;99.90
48264;DHT22;34086;51.076;13.722;2022-10-17T03:35:18;13.40;99.90
48264;DHT22;34086;51.076;13.722;2022-10-17T03:36:22;13.40;99.90
48264;DHT22;34086;51.076;13.722;2022-10-17T03:37:23;13.40;99.90
48264;DHT22;34086;51.076;13.722;2022-10-17T03:38:24;13.40;99.90
48264;DHT22;34086;51.076;13.722;2022-10-17T03:39:25;13.40;99.90
48264;DHT22;34086;51.076;13.722;2022-10-17T03:40:27;13.50;99.90
48264;DHT22;34086;51.076;13.722;2022-10-17T03:41:28;13.50;99.90
48264;DHT22;34086;51.076;13.722;2022-10-17T03:42:30;13.50;99.90
48264;DHT22;34086;51.076;13.722;2022-10-17T03:43:31;13.40;99.90
48264;DHT22;34086;51.076;13.722;2022-10-17T03:44:35;13.50;99.90
48264;DHT22;34086;51.076;13.722;2022-10-17T03:45:36;13.50;99.90
48264;DHT22;34086;51.076;13.722;2022-10-17T03:46:37;13.50;99.90
48264;DHT22;34086;51.076;13.722;2022-10-17T03:47:38;13.50;99.90
48264;DHT22;34086;51.076;13.722;2022-10-17T03:48:38;13.50;99.90
48264;DHT22;34086;51.076;13.722;2022-10-17T03:49:40;13.50;99.90
48264;DHT22;34086;51.076;13.722;2022-10-17T03:50:41;13.50;99.90
48264;DHT22;34086;51.076;13.722;2022-10-17T03:51:42;13.50;99.90
48264;DHT22;34086;51.076;13.722;2022-10-17T03:52:47;13.50;99.90
48264;DHT22;34086;51.076;13.722;2022-10-17T03:53:48;13.50;99.90
48264;DHT22;34086;51.076;13.722;2022-10-17T03:54:49;13.50;99.90
48264;DHT22;34086;51.076;13.722;2022-10-17T03:55:51;13.50;99.90
48264;DHT22;34086;51.076;13.722;2022-10-17T03:56:52;13.50;99.90
48264;DHT22;34086;51.076;13.722;2022-10-17T03:57:54;13.50;99.90
48264;DHT22;34086;51.076;13.722;2022-10-17T03:58:56;13.50;99.90
48264;DHT22;34086;51.076;13.722;2022-10-17T03:59:57;13.50;99.90
48264;DHT22;34086;51.076;13.722;2022-10-17T04:01:04;13.50;99.90
48264;DHT22;34086;51.076;13.722;2022-10-17T04:02:04;13.50;99.90
48264;DHT22;34086;51.076;13.722;2022-10-17T04:03:05;13.50;99.90
48264;DHT22;34086;51.076;13.722;2022-10-17T04:04:06;13.50;99.90
48264;DHT22;34086;51.076;13.722;2022-10-17T04:05:08;13.50;99.90
48264;DHT22;34086;51.076;13.722;2022-10-17T04:06:12;13.50;99.90
48264;DHT22;34086;51.076;13.722;2022-10-17T04:07:15;13.50;99.90
48264;DHT22;34086;51.076;13.722;2022-10-17T04:08:18;13.50;99.90
48264;DHT22;34086;51.076;13.722;2022-10-17T04:09:38;13.50;99.90
48264;DHT22;34086;51.076;13.722;2022-10-17T04:10:42;13.50;99.90
48264;DHT22;34086;51.076;13.722;2022-10-17T04:11:43;13.50;99.90
48264;DHT22;34086;51.076;13.722;2022-10-17T04:12:44;13.60;99.90
48264;DHT22;34086;51.076;13.722;2022-10-17T04:13:45;13.50;99.90
48264;DHT22;34086;51.076;13.722;2022-10-17T04:14:47;13.60;99.90
48264;DHT22;34086;51.076;13.722;2022-10-17T04:16:02;13.60;99.90
48264;DHT22;34086;51.076;13.722;2022-10-17T04:17:03;13.50;99.90
48264;DHT22;34086;51.076;13.722;2022-10-17T04:18:05;13.50;99.90
48264;DHT22;34086;51.076;13.722;2022-10-17T04:19:06;13.50;99.90
48264;DHT22;34086;51.076;13.722;2022-10-17T04:20:13;13.50;99.90
48264;DHT22;34086;51.076;13.722;2022-10-17T04:21:14;13.50;99.90
48264;DHT22;34086;51.076;13.722;2022-10-17T04:22:15;13.50;99.90
48264;DHT22;34086;51.076;13.722;2022-10-17T04:23:15;13.50;99.90
48264;DHT22;34086;51.076;13.722;2022-10-17T04:24:16;13.50;99.90
48264;DHT22;34086;51.076;13.722;2022-10-17T04:25:37;13.50;99.90
48264;DHT22;34086;51.076;13.722;2022-10-17T04:26:38;13.50;99.90
48264;DHT22;34086;51.076;13.722;2022-10-17T04:27:39;13.50;99.90
48264;DHT22;34086;51.076;13.722;2022-10-17T04:28:40;13.50;99.90
48264;DHT22;34086;51.076;13.722;2022-10-17T04:29:41;13.50;99.90
48264;DHT22;34086;51.076;13.722;2022-10-17T04:31:04;13.50;99.90
48264;DHT22;34086;51.076;13.722;2022-10-17T04:32:11;13.50;99.90
48264;DHT22;34086;51.076;13.722;2022-10-17T04:33:16;13.50;99.90
48264;DHT22;34086;51.076;13.722;2022-10-17T04:34:17;13.50;99.90
48264;DHT22;34086;51.076;13.722;2022-10-17T04:35:18;13.50;99.90
48264;DHT22;34086;51.076;13.722;2022-10-17T04:36:24;13.50;99.90
48264;DHT22;34086;51.076;13.722;2022-10-17T04:37:25;13.40;99.90
48264;DHT22;34086;51.076;13.722;2022-10-17T04:38:28;13.40;99.90
48264;DHT22;34086;51.076;13.722;2022-10-17T04:39:29;13.40;99.90
48264;DHT22;34086;51.076;13.722;2022-10-17T04:40:31;13.40;99.90
48264;DHT22;34086;51.076;13.722;2022-10-17T04:41:33;13.40;99.90
48264;DHT22;34086;51.076;13.722;2022-10-17T04:42:35;13.40;99.90
48264;DHT22;34086;51.076;13.722;2022-10-17T04:43:38;13.40;99.90
48264;DHT22;34086;51.076;13.722;2022-10-17T04:44:39;13.40;99.90
48264;DHT22;34086;51.076;13.722;2022-10-17T04:45:40;13.40;99.90
48264;DHT22;34086;51.076;13.722;2022-10-17T04:46:41;13.30;99.90
48264;DHT22;34086;51.076;13.722;2022-10-17T04:47:41;13.40;99.90
48264;DHT22;34086;51.076;13.722;2022-10-17T04:48:42;13.40;99.90
48264;DHT22;34086;51.076;13.722;2022-10-17T04:49:44;13.40;99.90
48264;DHT22;34086;51.076;13.722;2022-10-17T04:50:55;13.40;99.90
48264;DHT22;34086;51.076;13.722;2022-10-17T04:52:07;13.30;99.90
48264;DHT22;34086;51.076;13.722;2022-10-17T04:53:16;13.30;99.90
48264;DHT22;34086;51.076;13.722;2022-10-17T04:54:18;13.40;99.90
48264;DHT22;34086;51.076;13.722;2022-10-17T04:55:22;13.40;99.90
48264;DHT22;34086;51.076;13.722;2022-10-17T04:56:23;13.40;99.90
48264;DHT22;34086;51.076;13.722;2022-10-17T04:57:24;13.40;99.90
48264;DHT22;34086;51.076;13.722;2022-10-17T04:58:39;13.30;99.90
48264;DHT22;34086;51.076;13.722;2022-10-17T04:59:40;13.40;99.90
48264;DHT22;34086;51.076;13.722;2022-10-17T05:00:56;13.40;99.90
48264;DHT22;34086;51.076;13.722;2022-10-17T05:02:01;13.40;99.90
48264;DHT22;34086;51.076;13.722;2022-10-17T05:03:03;13.40;99.90
48264;DHT22;34086;51.076;13.722;2022-10-17T05:04:04;13.40;99.90
48264;DHT22;34086;51.076;13.722;2022-10-17T05:05:05;13.40;99.90
48264;DHT22;34086;51.076;13.722;2022-10-17T05:06:08;13.50;99.90
48264;DHT22;34086;51.076;13.722;2022-10-17T05:07:11;13.40;99.90
48264;DHT22;34086;51.076;13.722;2022-10-17T05:08:20;13.40;99.90
48264;DHT22;34086;51.076;13.722;2022-10-17T05:09:21;13.50;99.90
48264;DHT22;34086;51.076;13.722;2022-10-17T05:10:22;13.40;99.90
48264;DHT22;34086;51.076;13.722;2022-10-17T05:11:27;13.40;99.90
48264;DHT22;34086;51.076;13.722;2022-10-17T05:12:28;13.50;99.90
48264;DHT22;34086;51.076;13.722;2022-10-17T05:13:29;13.50;99.90
48264;DHT22;34086;51.076;13.722;2022-10-17T05:14:29;13.50;99.90
48264;DHT22;34086;51.076;13.722;2022-10-17T05:15:30;13.50;99.90
48264;DHT22;34086;51.076;13.722;2022-10-17T05:16:31;13.50;99.90
48264;DHT22;34086;51.076;13.722;2022-10-17T05:17:32;13.40;99.90
48264;DHT22;34086;51.076;13.722;2022-10-17T05:18:33;13.40;99.90
48264;DHT22;34086;51.076;13.722;2022-10-17T05:19:34;13.40;99.90
48264;DHT22;34086;51.076;13.722;2022-10-17T05:20:35;13.40;99.90
48264;DHT22;34086;51.076;13.722;2022-10-17T05:21:36;13.40;99.90
48264;DHT22;34086;51.076;13.722;2022-10-17T05:22:38;13.40;99.90
48264;DHT22;34086;51.076;13.722;2022-10-17T05:23:39;13.40;99.90
48264;DHT22;34086;51.076;13.722;2022-10-17T05:24:40;13.40;99.90
48264;DHT22;34086;51.076;13.722;2022-10-17T05:25:42;13.40;99.90
48264;DHT22;34086;51.076;13.722;2022-10-17T05:26:43;13.40;99.90
48264;DHT22;34086;51.076;13.722;2022-10-17T05:27:44;13.40;99.90
48264;DHT22;34086;51.076;13.722;2022-10-17T05:28:45;13.30;99.90
48264;DHT22;34086;51.076;13.722;2022-10-17T05:29:48;13.30;99.90
48264;DHT22;34086;51.076;13.722;2022-10-17T05:31:04;13.40;99.90
48264;DHT22;34086;51.076;13.722;2022-10-17T05:32:05;13.30;99.90
48264;DHT22;34086;51.076;13.722;2022-10-17T05:33:07;13.30;99.90
48264;DHT22;34086;51.076;13.722;2022-10-17T05:34:08;13.30;99.90
48264;DHT22;34086;51.076;13.722;2022-10-17T05:35:09;13.40;99.90
48264;DHT22;34086;51.076;13.722;2022-10-17T05:36:11;13.40;99.90
48264;DHT22;34086;51.076;13.722;2022-10-17T05:37:13;13.40;99.90
48264;DHT22;34086;51.076;13.722;2022-10-17T05:38:16;13.40;99.90
48264;DHT22;34086;51.076;13.722;2022-10-17T05:39:18;13.40;99.90
48264;DHT22;34086;51.076;13.722;2022-10-17T05:40:20;13.40;99.90
48264;DHT22;34086;51.076;13.722;2022-10-17T05:41:23;13.40;99.90
48264;DHT22;34086;51.076;13.722;2022-10-17T05:42:24;13.40;99.90
48264;DHT22;34086;51.076;13.722;2022-10-17T05:43:25;13.40;99.90
48264;DHT22;34086;51.076;13.722;2022-10-17T05:44:26;13.40;99.90
48264;DHT22;34086;51.076;13.722;2022-10-17T05:45:32;13.40;99.90
48264;DHT22;34086;51.076;13.722;2022-10-17T05:46:34;13.50;99.90
48264;DHT22;34086;51.076;13.722;2022-10-17T05:47:34;13.50;99.90
48264;DHT22;34086;51.076;13.722;2022-10-17T05:48:35;13.50;99.90
48264;DHT22;34086;51.076;13.722;2022-10-17T05:49:36;13.50;99.90
48264;DHT22;34086;51.076;13.722;2022-10-17T05:50:38;13.50;99.90
48264;DHT22;34086;51.076;13.722;2022-10-17T05:51:44;13.40;99.90
48264;DHT22;34086;51.076;13.722;2022-10-17T05:52:45;13.50;99.90
48264;DHT22;34086;51.076;13.722;2022-10-17T05:53:49;13.40;99.90
48264;DHT22;34086;51.076;13.722;2022-10-17T05:54:56;13.50;99.90
48264;DHT22;34086;51.076;13.722;2022-10-17T05:55:58;13.50;99.90
48264;DHT22;34086;51.076;13.722;2022-10-17T05:57:00;13.50;99.90
48264;DHT22;34086;51.076;13.722;2022-10-17T05:58:04;13.50;99.90
48264;DHT22;34086;51.076;13.722;2022-10-17T05:59:09;13.50;99.90
48264;DHT22;34086;51.076;13.722;2022-10-17T06:00:23;13.50;99.90
48264;DHT22;34086;51.076;13.722;2022-10-17T06:01:30;13.50;99.90
48264;DHT22;34086;51.076;13.722;2022-10-17T06:02:31;13.60;99.90
48264;DHT22;34086;51.076;13.722;2022-10-17T06:03:32;13.50;99.90
48264;DHT22;34086;51.076;13.722;2022-10-17T06:04:37;13.60;99.90
48264;DHT22;34086;51.076;13.722;2022-10-17T06:05:37;13.60;99.90
48264;DHT22;34086;51.076;13.722;2022-10-17T06:06:39;13.60;99.90
48264;DHT22;34086;51.076;13.722;2022-10-17T06:07:40;13.60;99.90
48264;DHT22;34086;51.076;13.722;2022-10-17T06:08:42;13.60;99.90
48264;DHT22;34086;51.076;13.722;2022-10-17T06:09:47;13.60;99.90
48264;DHT22;34086;51.076;13.722;2022-10-17T06:10:49;13.70;99.90
48264;DHT22;34086;51.076;13.722;2022-10-17T06:11:50;13.70;99.90
48264;DHT22;34086;51.076;13.722;2022-10-17T06:12:51;13.70;99.90
48264;DHT22;34086;51.076;13.722;2022-10-17T06:13:52;13.70;99.90
48264;DHT22;34086;51.076;13.722;2022-10-17T06:14:58;13.80;99.90
48264;DHT22;34086;51.076;13.722;2022-10-17T06:16:00;13.80;99.90
48264;DHT22;34086;51.076;13.722;2022-10-17T06:17:01;13.80;99.90
48264;DHT22;34086;51.076;13.722;2022-10-17T06:18:02;13.80;99.90
48264;DHT22;34086;51.076;13.722;2022-10-17T06:19:02;13.80;99.90
48264;DHT22;34086;51.076;13.722;2022-10-17T06:20:04;13.80;99.90
48264;DHT22;34086;51.076;13.722;2022-10-17T06:21:07;13.80;99.90
48264;DHT22;34086;51.076;13.722;2022-10-17T06:22:10;13.90;99.90
48264;DHT22;34086;51.076;13.722;2022-10-17T06:23:10;13.90;99.90
48264;DHT22;34086;51.076;13.722;2022-10-17T06:24:27;13.90;99.90
48264;DHT22;34086;51.076;13.722;2022-10-17T06:25:32;14.00;99.90
48264;DHT22;34086;51.076;13.722;2022-10-17T06:26:36;14.00;99.90
48264;DHT22;34086;51.076;13.722;2022-10-17T06:27:40;14.00;99.90
48264;DHT22;34086;51.076;13.722;2022-10-17T06:28:42;14.00;99.90
48264;DHT22;34086;51.076;13.722;2022-10-17T06:29:43;14.00;99.90
48264;DHT22;34086;51.076;13.722;2022-10-17T06:30:44;14.00;99.90
48264;DHT22;34086;51.076;13.722;2022-10-17T06:31:49;14.00;99.90
48264;DHT22;34086;51.076;13.722;2022-10-17T06:32:53;14.10;99.90
48264;DHT22;34086;51.076;13.722;2022-10-17T06:33:54;14.10;99.90
48264;DHT22;34086;51.076;13.722;2022-10-17T06:34:54;14.10;99.90
48264;DHT22;34086;51.076;13.722;2022-10-17T06:35:55;14.10;99.90
48264;DHT22;34086;51.076;13.722;2022-10-17T06:36:58;14.10;99.90
48264;DHT22;34086;51.076;13.722;2022-10-17T06:37:58;14.10;99.90
48264;DHT22;34086;51.076;13.722;2022-10-17T06:39:00;14.10;99.90
48264;DHT22;34086;51.076;13.722;2022-10-17T06:40:27;14.10;99.90
48264;DHT22;34086;51.076;13.722;2022-10-17T06:41:29;14.10;99.90
48264;DHT22;34086;51.076;13.722;2022-10-17T06:42:38;14.20;99.90
48264;DHT22;34086;51.076;13.722;2022-10-17T06:43:59;14.20;99.90
48264;DHT22;34086;51.076;13.722;2022-10-17T06:45:30;14.20;99.90
48264;DHT22;34086;51.076;13.722;2022-10-17T06:46:53;14.20;99.90
48264;DHT22;34086;51.076;13.722;2022-10-17T06:47:56;14.20;99.90
48264;DHT22;34086;51.076;13.722;2022-10-17T06:49:29;14.30;99.90
48264;DHT22;34086;51.076;13.722;2022-10-17T06:50:38;14.30;99.90
48264;DHT22;34086;51.076;13.722;2022-10-17T06:51:45;14.30;99.90
48264;DHT22;34086;51.076;13.722;2022-10-17T06:52:53;14.30;99.90
48264;DHT22;34086;51.076;13.722;2022-10-17T06:54:19;14.30;99.90
48264;DHT22;34086;51.076;13.722;2022-10-17T06:55:23;14.30;99.90
48264;DHT22;34086;51.076;13.722;2022-10-17T06:56:36;14.40;99.90
48264;DHT22;34086;51.076;13.722;2022-10-17T06:57:55;14.40;99.90
48264;DHT22;34086;51.076;13.722;2022-10-17T06:59:16;14.50;99.90
48264;DHT22;34086;51.076;13.722;2022-10-17T07:00:24;14.50;99.90
48264;DHT22;34086;51.076;13.722;2022-10-17T07:01:30;14.50;99.90
48264;DHT22;34086;51.076;13.722;2022-10-17T07:02:33;14.60;99.90
48264;DHT22;34086;51.076;13.722;2022-10-17T07:03:36;14.60;99.90
48264;DHT22;34086;51.076;13.722;2022-10-17T07:04:37;14.60;99.90
48264;DHT22;34086;51.076;13.722;2022-10-17T07:05:38;14.60;99.90
48264;DHT22;34086;51.076;13.722;2022-10-17T07:06:38;14.70;99.90
48264;DHT22;34086;51.076;13.722;2022-10-17T07:07:45;14.60;99.90
48264;DHT22;34086;51.076;13.722;2022-10-17T07:08:46;14.70;99.90
48264;DHT22;34086;51.076;13.722;2022-10-17T07:09:50;14.70;99.90
48264;DHT22;34086;51.076;13.722;2022-10-17T07:10:54;14.70;99.90